Time;durP1;ratioP1;P1;durP2;ratioP2;P2;SDS_P1;SDS_P2;PMS_P1;PMS_P2;Temp;Humidity;BMP_temperature;BMP_pressure;BME280_temperature;BME280_humidity;BME280_pressure;Samples;Min_cycle;Max_cycle;Signal;HPM_P1;HPM_P2
2021/03/12 13:41:16;;;;;;;3.15;1.50;;;;;;;17.47;45.73;100213.03;4988338;28;96576;-51
2021/03/12 13:43:42;;;;;;;5.80;1.40;;;;;;;17.86;45.17;100202.31;4986102;28;96805;-50
2021/03/12 13:46:08;;;;;;;3.38;1.08;;;;;;;18.42;44.06;100199.81;4989418;28;97691;-50
2021/03/12 13:48:33;;;;;;;4.75;1.30;;;;;;;18.98;42.96;100192.84;4985135;28;125455;-50
2021/03/12 13:50:59;;;;;;;2.33;0.98;;;;;;;19.47;41.75;100207.06;4982858;28;110352;-51
2021/03/12 13:53:24;;;;;;;3.33;1.20;;;;;;;19.89;41.29;100205.63;4986766;28;96783;-51
2021/03/12 13:55:50;;;;;;;2.30;1.15;;;;;;;20.22;40.25;100192.94;4965989;28;128421;-50
2021/03/12 13:58:17;;;;;;;2.53;0.82;;;;;;;20.51;39.77;100188.31;4989818;28;127205;-50
2021/03/12 14:00:43;;;;;;;2.47;1.10;;;;;;;20.76;39.43;100185.56;4980732;28;97380;-50
2021/03/12 14:03:08;;;;;;;3.60;1.75;;;;;;;20.98;38.87;100171.44;4985698;28;96824;-50
2021/03/12 14:05:34;;;;;;;2.90;1.10;;;;;;;21.16;38.27;100177.75;4985463;28;97706;-51
2021/03/12 14:07:59;;;;;;;2.55;1.25;;;;;;;21.33;37.92;100177.06;4985311;28;126575;-51
2021/03/12 14:10:25;;;;;;;4.30;2.55;;;;;;;21.46;37.57;100172.97;4986787;28;108095;-51
2021/03/12 14:12:50;;;;;;;2.10;0.77;;;;;;;21.58;37.41;100161.81;4985113;28;107195;-51
2021/03/12 14:15:34;;;;;;;3.95;1.25;;;;;;;21.69;36.74;100174.63;4981263;28;97067;-50
2021/03/12 14:18:07;;;;;;;2.15;1.30;;;;;;;21.78;36.99;100160.97;4986067;28;97341;-51
2021/03/12 14:20:33;;;;;;;2.47;1.10;;;;;;;21.87;36.79;100154.34;4990079;28;97387;-51
2021/03/12 14:22:58;;;;;;;2.97;1.75;;;;;;;21.94;36.31;100139.00;4982672;28;110163;-51
2021/03/12 14:25:24;;;;;;;3.35;1.00;;;;;;;22.00;36.34;100141.41;4987141;28;97450;-51
2021/03/12 14:28:09;;;;;;;2.72;1.52;;;;;;;22.07;35.94;100156.13;4985647;28;98216;-51
2021/03/12 14:30:37;;;;;;;2.38;1.13;;;;;;;22.13;36.06;100165.59;4988062;28;96822;-50
2021/03/12 14:33:03;;;;;;;3.08;1.80;;;;;;;22.16;35.59;100176.09;4986349;28;98335;-51
2021/03/12 14:35:29;;;;;;;2.85;1.00;;;;;;;22.19;35.76;100174.16;4985909;28;97541;-51
2021/03/12 14:37:54;;;;;;;1.85;0.70;;;;;;;22.24;35.22;100168.59;4988071;28;123657;-51
2021/03/12 14:40:20;;;;;;;1.80;0.85;;;;;;;22.28;35.46;100185.28;4979583;28;110264;-51
2021/03/12 14:42:46;;;;;;;2.50;0.95;;;;;;;22.31;35.46;100212.56;4987897;28;102708;-51
2021/03/12 14:45:12;;;;;;;2.85;1.05;;;;;;;22.33;35.19;100215.16;4984814;28;97399;-50
2021/03/12 14:47:56;;;;;;;1.92;0.90;;;;;;;22.36;34.88;100220.34;4984930;28;96975;-51
2021/03/12 14:50:24;;;;;;;1.63;0.70;;;;;;;22.37;35.13;100211.41;4987589;28;96986;-51
2021/03/12 14:52:50;;;;;;;2.90;0.77;;;;;;;22.40;34.94;100201.50;4974234;28;97203;-51
2021/03/12 14:55:16;;;;;;;3.13;1.17;;;;;;;22.41;34.64;100183.78;4976577;28;97381;-50
2021/03/12 14:57:42;;;;;;;2.30;0.95;;;;;;;22.42;34.48;100190.81;4989189;28;97205;-51
2021/03/12 15:00:08;;;;;;;3.08;1.00;;;;;;;22.43;34.33;100197.88;4970628;28;97059;-51
2021/03/12 15:02:34;;;;;;;2.03;0.80;;;;;;;22.44;34.44;100149.09;4975347;28;96641;-51
2021/03/12 15:04:59;;;;;;;1.90;0.77;;;;;;;22.45;34.63;100161.44;4974465;28;98639;-51
2021/03/12 15:07:25;;;;;;;1.30;0.70;;;;;;;22.45;34.41;100181.84;4969545;28;99732;-51
2021/03/12 15:09:50;;;;;;;1.98;1.10;;;;;;;22.46;34.15;100176.47;4972538;28;96818;-50
2021/03/12 15:12:15;;;;;;;2.95;0.90;;;;;;;22.47;34.12;100164.88;4970494;28;97045;-51
2021/03/12 15:14:46;;;;;;;1.75;0.75;;;;;;;22.47;34.04;100164.03;4973168;28;98858;-50
2021/03/12 15:17:12;;;;;;;1.65;0.80;;;;;;;22.49;34.20;100159.50;4975073;28;99298;-51
2021/03/12 15:19:37;;;;;;;2.03;0.80;;;;;;;22.49;34.32;100154.19;4968423;28;109134;-50
2021/03/12 15:22:04;;;;;;;1.60;0.80;;;;;;;22.48;34.31;100144.47;4975293;28;96801;-51
2021/03/12 15:24:31;;;;;;;1.85;0.50;;;;;;;22.49;34.20;100143.56;4972646;28;98153;-51
2021/03/12 15:26:57;;;;;;;2.10;0.80;;;;;;;22.48;33.92;100140.06;4972072;28;114725;-51
2021/03/12 15:29:22;;;;;;;1.95;0.60;;;;;;;22.48;34.25;100126.75;4975804;28;96935;-51
2021/03/12 15:31:48;;;;;;;1.10;0.63;;;;;;;22.48;34.05;100121.44;4971978;28;98708;-50
2021/03/12 15:34:16;;;;;;;1.23;0.70;;;;;;;22.47;33.83;100127.69;4971712;28;98773;-51
2021/03/12 15:36:42;;;;;;;1.33;0.40;;;;;;;22.48;33.87;100124.09;4973756;28;97315;-51
2021/03/12 15:39:27;;;;;;;0.90;0.60;;;;;;;22.47;33.89;100119.72;4976768;28;96939;-51
2021/03/12 15:41:53;;;;;;;1.58;0.60;;;;;;;22.47;33.95;100125.03;4970480;28;97581;-50
2021/03/12 15:44:18;;;;;;;1.58;0.60;;;;;;;22.47;33.77;100122.38;4972386;28;99821;-51
2021/03/12 15:46:47;;;;;;;1.42;0.70;;;;;;;22.48;33.76;100128.53;4970654;28;98413;-51
2021/03/12 15:49:13;;;;;;;0.95;0.50;;;;;;;22.48;33.99;100116.13;4959154;28;97291;-51
2021/03/12 15:51:46;;;;;;;1.07;0.57;;;;;;;22.49;33.80;100119.66;4972915;28;97134;-50
2021/03/12 15:54:12;;;;;;;1.27;0.68;;;;;;;22.49;33.80;100123.16;4972208;28;99763;-51
2021/03/12 15:56:43;;;;;;;2.05;1.90;;;;;;;22.49;33.56;100125.81;4972323;28;99223;-50
2021/03/12 15:59:16;;;;;;;1.40;0.70;;;;;;;22.49;33.82;100115.19;4973987;28;96764;-51
2021/03/12 16:01:44;;;;;;;1.00;0.40;;;;;;;22.49;33.95;100124.97;4975522;28;97151;-50
2021/03/12 16:04:09;;;;;;;1.10;0.50;;;;;;;22.50;33.74;100108.94;4958247;28;100205;-51
2021/03/12 16:06:36;;;;;;;0.68;0.50;;;;;;;22.49;33.37;100117.84;4974220;28;98295;-50
2021/03/12 16:09:03;;;;;;;0.80;0.63;;;;;;;22.51;33.68;100121.28;4960273;28;96927;-50
2021/03/12 16:11:29;;;;;;;1.45;0.70;;;;;;;22.51;33.52;100121.28;4963577;28;96883;-51
2021/03/12 16:13:54;;;;;;;0.90;0.57;;;;;;;22.51;33.74;100123.94;4973127;28;126815;-51
2021/03/12 16:16:23;;;;;;;0.82;0.50;;;;;;;22.52;33.50;100125.66;4974183;28;97406;-51
2021/03/12 16:19:09;;;;;;;2.42;2.25;;;;;;;22.53;33.39;100130.06;4970450;28;96811;-51
2021/03/12 16:21:48;;;;;;;0.90;0.60;;;;;;;22.53;33.61;100127.41;4973535;28;97537;-50
2021/03/12 16:24:33;;;;;;;;;;;;;;;22.52;33.76;100128.34;4970411;28;97330;-51
2021/03/12 16:27:17;;;;;;;1.50;0.60;;;;;;;22.56;33.74;100123.72;4964742;28;96876;-51
2021/03/12 16:29:44;;;;;;;0.90;0.57;;;;;;;22.54;33.28;100128.25;4975916;28;98415;-51
2021/03/12 16:32:14;;;;;;;0.95;0.55;;;;;;;22.52;33.68;100123.00;4977237;28;97875;-51
2021/03/12 16:34:40;;;;;;;1.88;0.57;;;;;;;22.51;33.67;100121.28;4962446;28;97553;-51
2021/03/12 16:37:22;;;;;;;1.17;0.43;;;;;;;22.52;33.27;100119.50;4979825;22;97412;-51
2021/03/12 16:39:48;;;;;;;1.15;0.82;;;;;;;22.51;33.46;100126.59;4993185;22;96868;-51
2021/03/12 16:42:14;;;;;;;1.05;0.43;;;;;;;22.51;33.33;100115.97;4972980;28;103077;-51
2021/03/12 16:44:42;;;;;;;1.55;0.40;;;;;;;22.52;33.53;100125.66;4982275;22;98277;-51
2021/03/12 16:47:11;;;;;;;0.82;0.30;;;;;;;22.53;33.52;100118.56;4958949;28;100221;-51
2021/03/12 16:49:36;;;;;;;0.47;0.30;;;;;;;22.52;33.29;100120.34;4977726;28;96815;-51
2021/03/12 16:52:02;;;;;;;0.77;0.50;;;;;;;22.52;33.42;100115.03;4992199;22;110054;-50
2021/03/12 16:54:27;;;;;;;0.90;0.60;;;;;;;22.52;33.13;100109.72;4992896;28;122616;-51
2021/03/12 16:56:53;;;;;;;1.27;0.68;;;;;;;22.52;33.36;100109.72;4993597;28;97121;-51
2021/03/12 16:59:19;;;;;;;1.10;0.40;;;;;;;22.52;33.35;100101.75;4994047;28;107748;-51
2021/03/12 17:01:44;;;;;;;0.65;0.40;;;;;;;22.52;33.41;100096.44;4993504;28;110043;-51
2021/03/12 17:04:12;;;;;;;1.10;0.65;;;;;;;22.52;32.97;100101.75;4992241;28;98349;-51
2021/03/12 17:09:18;;;;;;;0.93;0.57;;;;;;;22.53;33.26;100099.94;4964298;28;96871;-50
2021/03/12 17:11:43;;;;;;;1.33;0.40;;;;;;;22.52;33.22;100091.13;4965834;28;96867;-50
2021/03/12 17:14:09;;;;;;;1.30;0.70;;;;;;;22.51;33.22;100089.38;4968330;28;107596;-50
2021/03/12 17:19:04;;;;;;;0.85;0.57;;;;;;;22.53;32.91;100097.28;4938006;28;96897;-48
2021/03/12 17:21:30;;;;;;;1.08;0.60;;;;;;;22.52;32.91;100092.94;4934190;28;97132;-48
2021/03/12 17:23:55;;;;;;;0.82;0.60;;;;;;;22.51;33.30;100094.69;4934492;28;97646;-48
2021/03/12 17:26:21;;;;;;;0.98;0.60;;;;;;;22.51;32.95;100092.03;4940329;28;111254;-48
2021/03/12 17:28:46;;;;;;;1.20;0.52;;;;;;;22.52;33.11;100091.13;4929750;28;97066;-48
2021/03/12 17:31:12;;;;;;;2.13;0.88;;;;;;;22.51;32.94;100088.53;4949753;23;97970;-48
2021/03/12 17:33:37;;;;;;;0.80;0.70;;;;;;;22.52;32.89;100084.97;4963812;22;98503;-48
2021/03/12 17:36:03;;;;;;;1.60;0.90;;;;;;;22.51;32.90;100088.53;4973101;28;98801;-48
2021/03/12 17:38:29;;;;;;;1.20;0.70;;;;;;;22.51;32.98;100101.81;4974596;28;97929;-48
2021/03/12 17:40:54;;;;;;;0.80;0.70;;;;;;;22.49;33.06;100101.03;4971453;28;107351;-48
2021/03/12 17:43:19;;;;;;;1.02;0.68;;;;;;;22.46;32.78;100102.06;4962292;28;126762;-49
2021/03/12 17:45:45;;;;;;;1.27;0.63;;;;;;;22.45;33.04;100095.03;4962367;28;97651;-49
2021/03/12 17:48:10;;;;;;;1.30;0.52;;;;;;;22.42;32.88;100098.69;4968805;28;96548;-49
2021/03/12 17:50:37;;;;;;;1.20;0.52;;;;;;;22.39;33.25;100100.66;4961565;28;96996;-49
2021/03/12 17:53:03;;;;;;;1.95;1.30;;;;;;;22.37;32.79;100100.72;4966401;28;97598;-49
2021/03/12 17:55:28;;;;;;;0.68;0.47;;;;;;;22.35;32.96;100105.25;4971429;28;97247;-49
2021/03/12 17:57:54;;;;;;;1.27;0.52;;;;;;;22.33;32.78;100103.59;4971068;28;112835;-49
2021/03/12 18:00:20;;;;;;;1.23;0.70;;;;;;;22.32;33.29;100107.19;4976207;28;99801;-49
2021/03/12 18:02:46;;;;;;;1.10;0.60;;;;;;;22.31;33.28;100114.28;4973140;28;97578;-49
2021/03/12 18:05:11;;;;;;;1.00;0.70;;;;;;;22.28;32.99;100113.56;4969823;28;126759;-49
2021/03/12 18:07:37;;;;;;;0.70;0.50;;;;;;;22.26;33.11;100121.56;4969368;28;97543;-49
2021/03/12 18:10:03;;;;;;;2.20;0.70;;;;;;;22.24;33.40;100118.97;4974151;28;96808;-49
2021/03/12 18:12:29;;;;;;;1.02;0.50;;;;;;;22.24;33.19;100134.06;4952209;28;122570;-49
2021/03/12 18:14:54;;;;;;;1.40;0.60;;;;;;;22.22;33.02;100127.97;4961828;28;104865;-49
2021/03/12 18:17:19;;;;;;;1.00;0.60;;;;;;;22.21;32.91;100132.44;4970845;28;109701;-49
2021/03/12 18:19:45;;;;;;;1.95;0.73;;;;;;;22.19;33.08;100131.66;4968053;28;111600;-49
2021/03/12 18:22:12;;;;;;;0.60;0.60;;;;;;;22.18;33.23;100132.56;4969031;28;98093;-49
2021/03/12 18:24:37;;;;;;;1.73;0.73;;;;;;;22.18;33.24;100145.00;4967804;28;97020;-49
2021/03/12 18:27:04;;;;;;;0.80;0.50;;;;;;;22.16;32.97;100138.91;4974253;28;97797;-49
2021/03/12 18:29:30;;;;;;;1.25;0.60;;;;;;;22.14;33.24;100133.66;4978195;28;96966;-49
2021/03/12 18:31:55;;;;;;;1.15;0.63;;;;;;;22.14;33.20;100132.75;4972401;28;109972;-49
2021/03/12 18:34:21;;;;;;;1.10;0.60;;;;;;;22.12;33.05;100148.81;4975135;28;97278;-49
2021/03/12 18:36:46;;;;;;;1.23;0.60;;;;;;;22.11;33.34;100148.88;4972912;28;96930;-49
2021/03/12 18:39:12;;;;;;;1.38;0.73;;;;;;;22.10;33.08;100147.13;4970703;28;111694;-49
2021/03/12 18:41:37;;;;;;;0.95;0.60;;;;;;;22.08;33.10;100135.72;4973423;28;99153;-49
2021/03/12 18:44:03;;;;;;;1.38;0.73;;;;;;;22.08;33.02;100144.53;4972452;28;97309;-49
2021/03/12 18:46:28;;;;;;;2.15;0.70;;;;;;;22.05;33.10;100142.91;4973105;28;96784;-49
2021/03/12 18:48:54;;;;;;;2.80;0.82;;;;;;;22.05;33.38;100145.56;5008611;22;109600;-47
2021/03/12 18:51:19;;;;;;;1.17;0.60;;;;;;;22.04;33.37;100137.66;4956766;28;121907;-47
2021/03/12 18:53:44;;;;;;;1.52;0.77;;;;;;;22.04;33.18;100140.31;4954026;28;128641;-46
2021/03/12 18:56:12;;;;;;;1.33;0.60;;;;;;;22.02;33.15;100142.19;4955000;28;96882;-46
2021/03/12 18:58:37;;;;;;;1.05;0.70;;;;;;;22.02;33.38;100139.53;4936205;28;97092;-46
2021/03/12 19:01:03;;;;;;;1.80;0.98;;;;;;;22.01;33.27;100138.69;4946621;28;97452;-46
2021/03/12 19:03:29;;;;;;;1.73;0.77;;;;;;;22.01;33.51;100143.09;4945693;28;101846;-46
2021/03/12 19:05:54;;;;;;;0.90;0.60;;;;;;;22.00;33.22;100142.25;4951167;28;96839;-47
2021/03/12 19:08:22;;;;;;;1.60;0.70;;;;;;;21.98;33.20;100138.81;4979339;23;97043;-94
2021/03/12 19:10:51;;;;;;;1.90;1.02;;;;;;;21.98;33.38;100138.81;4933913;28;100390;-94
2021/03/12 19:13:24;;;;;;;1.40;0.90;;;;;;;21.98;33.10;100149.44;4949849;28;99285;-94
2021/03/12 19:15:53;;;;;;;0.95;0.70;;;;;;;21.98;33.32;100143.28;4953337;28;96386;-94
2021/03/12 19:18:32;;;;;;;2.15;0.70;;;;;;;21.96;33.42;100140.69;4954500;28;96103;-94
2021/03/12 19:21:13;;;;;;;1.80;0.75;;;;;;;21.97;33.06;100142.38;4959656;28;125614;-94
2021/03/12 19:23:39;;;;;;;1.55;0.80;;;;;;;21.96;33.46;100140.69;4952455;28;99779;-95
2021/03/12 19:26:10;;;;;;;1.60;1.00;;;;;;;21.95;33.50;100144.25;4934099;28;96511;-95
2021/03/12 19:28:56;;;;;;;1.38;1.08;;;;;;;21.96;33.57;100145.09;4936383;28;96136;-95
2021/03/12 19:31:33;;;;;;;2.08;1.13;;;;;;;21.96;33.14;100145.09;4964671;28;100135;-94
2021/03/12 19:34:02;;;;;;;1.73;0.90;;;;;;;21.95;33.44;100149.56;4933970;28;99453;-95
2021/03/12 19:36:30;;;;;;;1.38;0.90;;;;;;;21.96;33.59;100139.78;4933335;28;96610;-94
2021/03/12 19:38:58;;;;;;;1.35;1.15;;;;;;;21.94;33.62;100139.88;4949999;28;97353;-94
2021/03/12 19:41:28;;;;;;;1.33;1.05;;;;;;;21.96;33.44;100142.44;4961984;28;100510;-95
2021/03/12 19:43:58;;;;;;;2.13;0.95;;;;;;;21.95;33.34;100138.94;4963138;28;98976;-94
2021/03/12 19:46:29;;;;;;;2.17;1.10;;;;;;;21.95;33.43;100132.78;4955999;28;96140;-93
2021/03/12 19:48:54;;;;;;;1.90;1.02;;;;;;;21.94;33.31;100144.31;4958125;28;96685;-94
2021/03/12 19:51:25;;;;;;;3.05;1.33;;;;;;;21.94;33.47;100139.00;4954051;28;99231;-95
2021/03/12 19:53:56;;;;;;;2.63;1.10;;;;;;;21.93;33.35;100139.97;4951101;28;99658;-94
2021/03/12 19:56:29;;;;;;;2.83;1.20;;;;;;;21.91;33.45;100132.06;4947629;28;96663;-94
2021/03/12 19:58:55;;;;;;;2.10;0.85;;;;;;;21.92;33.42;100136.41;4931005;28;96656;-94
2021/03/12 20:01:26;;;;;;;1.85;0.88;;;;;;;21.91;33.41;100132.06;4941049;28;99459;-94
2021/03/12 20:03:54;;;;;;;2.88;1.58;;;;;;;21.91;33.35;100132.06;4946282;28;99678;-94
2021/03/12 20:06:23;;;;;;;1.42;0.80;;;;;;;21.92;33.25;100130.25;4946783;28;96610;-94
2021/03/12 20:08:52;;;;;;;1.30;0.80;;;;;;;21.90;33.47;100140.94;4947084;28;97672;-94
2021/03/12 20:11:25;;;;;;;1.40;0.70;;;;;;;21.91;33.35;100136.50;4974322;28;99095;-94
2021/03/12 20:13:58;;;;;;;2.53;1.13;;;;;;;21.92;33.42;100143.53;4948971;28;98877;-94
2021/03/12 20:16:30;;;;;;;1.58;1.00;;;;;;;21.91;33.23;100144.44;4966222;28;96208;-94
2021/03/12 20:19:03;;;;;;;1.80;1.02;;;;;;;21.89;33.22;100152.50;4954801;28;96829;-94
2021/03/12 20:21:29;;;;;;;2.05;0.80;;;;;;;21.90;33.38;100145.41;4945615;28;99886;-95
2021/03/12 20:23:55;;;;;;;1.30;0.60;;;;;;;21.92;33.37;100143.53;4949459;28;98684;-94
2021/03/12 20:26:23;;;;;;;0.77;0.60;;;;;;;21.93;33.31;100153.25;4936914;28;96636;-95
2021/03/12 20:28:53;;;;;;;1.65;0.85;;;;;;;21.93;33.58;100147.94;4935917;28;96633;-95
2021/03/12 20:31:19;;;;;;;1.73;0.98;;;;;;;21.95;33.39;100148.72;4931356;28;98975;-93
2021/03/12 20:33:47;;;;;;;1.58;0.77;;;;;;;21.95;33.32;100151.38;4956539;28;99617;-94
2021/03/12 20:36:22;;;;;;;2.15;1.25;;;;;;;21.95;33.15;100151.38;4980484;28;99258;-95
2021/03/12 20:38:50;;;;;;;2.70;1.20;;;;;;;21.97;33.20;100152.16;4936100;28;96401;-92
2021/03/12 20:41:21;;;;;;;1.48;0.95;;;;;;;21.97;33.07;100144.19;4957559;28;99373;-92
2021/03/12 20:43:49;;;;;;;1.63;0.82;;;;;;;21.98;32.98;100145.94;4945620;28;99537;-93
2021/03/12 20:46:15;;;;;;;1.73;1.02;;;;;;;21.98;33.11;100151.22;4938678;28;96719;-93
2021/03/12 20:48:46;;;;;;;1.15;0.77;;;;;;;21.99;33.36;100144.97;4962368;28;96066;-94
2021/03/12 20:51:15;;;;;;;1.60;1.00;;;;;;;22.00;33.19;100149.38;4953621;28;99242;-93
2021/03/12 20:53:41;;;;;;;1.98;0.73;;;;;;;21.99;33.28;100148.47;4932684;28;99175;-93
2021/03/12 20:56:07;;;;;;;2.75;1.10;;;;;;;22.01;33.22;100151.06;4951802;28;97933;-93
2021/03/12 20:58:33;;;;;;;2.90;1.00;;;;;;;22.01;33.11;100145.75;4950647;28;97203;-93
2021/03/12 21:00:58;;;;;;;1.25;0.70;;;;;;;22.00;33.08;100152.88;4932256;28;99595;-93
2021/03/12 21:03:24;;;;;;;2.33;0.80;;;;;;;22.02;32.93;100152.81;4929658;28;100386;-93
2021/03/12 21:05:50;;;;;;;1.65;0.80;;;;;;;22.02;33.25;100145.69;4931292;28;96602;-93
2021/03/12 21:08:15;;;;;;;2.10;0.90;;;;;;;22.02;33.06;100147.50;4944363;28;96825;-93
2021/03/12 21:10:41;;;;;;;1.45;1.02;;;;;;;22.04;32.71;100151.78;4942465;28;99957;-93
2021/03/12 21:13:13;;;;;;;2.28;1.98;;;;;;;22.04;33.40;100145.63;4944548;28;100235;-93
2021/03/12 21:15:42;;;;;;;2.40;0.95;;;;;;;22.05;33.23;100136.75;4961499;28;97582;-93
2021/03/12 21:18:13;;;;;;;2.10;0.88;;;;;;;22.06;33.00;100141.94;4929794;28;96800;-93
2021/03/12 21:20:42;;;;;;;1.23;0.88;;;;;;;22.07;32.82;100148.16;4945586;28;99562;-93
2021/03/12 21:23:11;;;;;;;2.17;1.98;;;;;;;22.07;33.28;100148.16;4946016;28;99104;-93
2021/03/12 21:25:37;;;;;;;1.40;0.70;;;;;;;22.07;33.09;100145.50;4949029;28;96587;-94
2021/03/12 21:28:03;;;;;;;1.75;0.70;;;;;;;22.08;33.01;100147.19;4947682;28;96641;-94
2021/03/12 21:30:29;;;;;;;2.13;0.93;;;;;;;22.08;33.00;100131.25;4929297;28;99412;-93
2021/03/12 21:32:57;;;;;;;1.70;0.88;;;;;;;22.08;33.22;100135.72;4946556;28;99577;-93
2021/03/12 21:35:23;;;;;;;1.75;1.00;;;;;;;22.08;33.05;100128.59;4947393;28;96019;-94
2021/03/12 21:37:55;;;;;;;1.20;0.98;;;;;;;22.09;32.93;100124.19;4941284;28;96472;-94
2021/03/12 21:40:23;;;;;;;1.58;1.00;;;;;;;22.09;33.03;100121.53;4945433;28;99527;-93
2021/03/12 21:42:55;;;;;;;1.65;0.85;;;;;;;22.09;32.94;100130.34;4936768;28;99272;-94
2021/03/12 21:45:35;;;;;;;1.95;1.55;;;;;;;22.07;33.06;100121.59;4934076;28;96736;-93
2021/03/12 21:48:15;;;;;;;2.33;1.60;;;;;;;22.07;33.00;100126.91;4963279;28;96746;-93
2021/03/12 21:50:41;;;;;;;1.50;0.70;;;;;;;22.08;33.03;100138.38;4947565;28;100345;-93
2021/03/12 21:53:09;;;;;;;2.47;2.15;;;;;;;22.06;33.00;100134.00;4945397;28;99847;-93
2021/03/12 21:55:47;;;;;;;1.33;0.73;;;;;;;22.04;33.04;100135.84;4965237;28;96630;-93
2021/03/12 21:58:22;;;;;;;1.80;0.80;;;;;;;22.05;32.91;100142.06;4953604;28;96104;-93
2021/03/12 22:01:28;;;;;;;2.25;1.25;;;;;;;22.02;33.08;100140.38;4925778;28;98984;-93
2021/03/12 22:03:59;;;;;;;3.33;1.00;;;;;;;22.05;32.91;100134.94;4953676;28;99341;-93
2021/03/12 22:06:39;;;;;;;1.73;1.52;;;;;;;22.03;33.00;100146.53;4953948;28;96599;-93
2021/03/12 22:09:24;;;;;;;1.80;0.82;;;;;;;22.03;32.89;100136.81;4949332;28;97008;-93
2021/03/12 22:15:31;;;;;;;2.10;0.93;;;;;;;22.02;32.85;100143.03;4970209;28;99326;-93
2021/03/12 22:18:43;;;;;;;1.52;0.90;;;;;;;21.98;32.92;100135.31;4977351;28;96092;-94
2021/03/12 22:25:16;;;;;;;4.35;4.05;;;;;;;21.99;32.85;100139.66;4930539;28;97337;-93
2021/03/12 22:28:01;;;;;;;2.42;0.80;;;;;;;21.96;33.01;100121.22;4972415;28;125194;-93
2021/03/12 22:30:49;;;;;;;1.35;0.95;;;;;;;21.95;33.21;100112.41;4979254;28;96581;-93
2021/03/12 22:33:27;;;;;;;2.20;0.88;;;;;;;21.95;32.92;100119.50;4954580;28;97077;-93
2021/03/12 22:36:32;;;;;;;;;;;;;;;;;;;;;
2021/03/12 22:39:03;;;;;;;1.63;0.63;;;;;;;21.93;32.95;100114.25;5004708;28;96943;-95
2021/03/12 22:41:32;;;;;;;1.23;0.65;;;;;;;21.93;32.79;100108.09;4952759;28;97352;-94
2021/03/12 22:44:07;;;;;;;;;;;;;;;;;;;;;
2021/03/12 22:46:41;;;;;;;1.55;1.17;;;;;;;21.92;33.24;100109.88;4958782;28;99425;-94
2021/03/12 22:49:21;;;;;;;0.98;0.60;;;;;;;21.93;32.80;100110.75;4972023;28;99077;-94
2021/03/12 22:51:54;;;;;;;1.42;1.13;;;;;;;21.93;33.20;100098.34;4962908;28;96051;-93
2021/03/12 22:54:22;;;;;;;1.42;1.33;;;;;;;21.93;32.89;100098.34;4968152;28;96020;-92
2021/03/12 22:56:57;;;;;;;2.47;1.35;;;;;;;21.92;33.02;100101.06;4936002;28;100558;-92
2021/03/12 22:59:25;;;;;;;1.73;0.60;;;;;;;21.93;33.01;100092.16;4968579;28;99473;-93
2021/03/12 23:01:54;;;;;;;1.95;1.80;;;;;;;21.93;33.08;100094.81;4943248;28;96793;-93
2021/03/12 23:04:20;;;;;;;1.77;0.60;;;;;;;21.93;32.68;100089.50;4976592;28;96782;-92
2021/03/12 23:06:45;;;;;;;1.40;0.77;;;;;;;21.93;32.76;100082.41;4961109;28;99336;-93
2021/03/12 23:09:19;;;;;;;1.73;0.55;;;;;;;21.91;32.86;100075.44;4958890;28;98536;-93
2021/03/12 23:11:59;;;;;;;2.33;1.67;;;;;;;21.93;32.79;100078.91;4945423;28;96481;-93
2021/03/12 23:14:25;;;;;;;1.20;0.70;;;;;;;21.92;32.97;100079.81;4962812;28;96086;-94
2021/03/12 23:17:03;;;;;;;1.33;1.00;;;;;;;21.91;32.76;100078.06;4961804;28;99343;-94
2021/03/12 23:19:29;;;;;;;1.42;0.85;;;;;;;21.91;32.69;100068.34;4993394;28;99106;-94
2021/03/12 23:21:54;;;;;;;2.42;0.90;;;;;;;21.91;32.75;100067.47;4959723;28;96700;-94
2021/03/12 23:24:20;;;;;;;1.33;0.88;;;;;;;21.90;32.96;100056.00;4961969;28;96088;-93
2021/03/12 23:26:51;;;;;;;1.10;0.60;;;;;;;21.89;32.56;100069.34;4957753;28;99792;-94
2021/03/12 23:29:17;;;;;;;2.50;1.00;;;;;;;21.90;32.97;100057.78;4955452;28;99611;-93
2021/03/12 23:31:48;;;;;;;2.10;1.38;;;;;;;21.89;32.68;100050.75;4963989;28;96461;-93
2021/03/12 23:34:14;;;;;;;3.28;2.35;;;;;;;21.89;32.82;100045.44;4962077;28;97861;-94
2021/03/12 23:36:40;;;;;;;1.88;1.67;;;;;;;21.88;33.05;100043.72;4961470;28;98911;-94
2021/03/12 23:39:37;;;;;;;1.92;1.17;;;;;;;21.84;32.82;100035.91;4963541;28;99137;-94
2021/03/12 23:42:06;;;;;;;1.67;0.73;;;;;;;21.89;33.01;100029.50;4957653;22;100284;-57
2021/03/12 23:44:32;;;;;;;1.50;0.70;;;;;;;21.87;32.92;100008.34;4950173;28;96791;-56
2021/03/12 23:46:57;;;;;;;1.70;1.15;;;;;;;21.88;32.78;100025.16;4950322;28;111023;-57
2021/03/12 23:49:22;;;;;;;1.65;0.90;;;;;;;21.87;32.69;100018.97;4952525;28;97453;-57
2021/03/12 23:51:48;;;;;;;1.48;0.70;;;;;;;21.87;32.91;100016.31;4947090;28;99411;-57
2021/03/12 23:54:13;;;;;;;2.13;0.90;;;;;;;21.88;33.02;100010.06;4936940;28;96926;-56
2021/03/12 23:56:39;;;;;;;1.58;0.82;;;;;;;21.87;32.70;100016.31;4949146;28;98379;-56
2021/03/12 23:59:05;;;;;;;2.03;1.15;;;;;;;21.87;32.62;99995.06;4946610;28;97208;-56
